createdAt,value
2016-04-01T00:00:22.470Z,1017.35
2016-04-01T00:01:22.487Z,1017.33
2016-04-01T00:02:22.506Z,1017.36
2016-04-01T00:03:35.261Z,1017.37
2016-04-01T00:04:28.795Z,1017.35
2016-04-01T00:05:41.766Z,1017.41
2016-04-01T00:06:22.579Z,1017.43
2016-04-01T00:07:48.256Z,1017.41
2016-04-01T00:08:44.900Z,1017.4
2016-04-01T00:09:44.918Z,1017.47
2016-04-01T00:10:44.968Z,1017.49
2016-04-01T00:11:51.205Z,1017.43
2016-04-01T00:12:44.958Z,1017.49
2016-04-01T00:13:57.694Z,1017.49
2016-04-01T00:15:04.182Z,1017.49
2016-04-01T00:15:44.996Z,1017.49
2016-04-01T00:16:45.016Z,1017.47
2016-04-01T00:17:45.033Z,1017.53
2016-04-01T00:18:45.035Z,1017.48
2016-04-01T00:19:45.055Z,1017.48
2016-04-01T00:20:45.073Z,1017.49
2016-04-01T00:21:45.090Z,1017.49
2016-04-01T00:22:45.094Z,1017.51
2016-04-01T00:23:51.393Z,1017.56
2016-04-01T00:24:45.131Z,1017.56
2016-04-01T00:25:45.165Z,1017.62
2016-04-01T00:26:45.167Z,1017.64
2016-04-01T00:28:10.842Z,1017.69
2016-04-01T00:28:45.203Z,1017.68
2016-04-01T00:29:45.206Z,1017.76
2016-04-01T00:31:00.397Z,1017.68
2016-04-01T00:32:00.414Z,1017.72
2016-04-01T00:33:13.168Z,1017.74
2016-04-01T00:34:13.186Z,1017.69
2016-04-01T00:35:00.453Z,1017.71
2016-04-01T00:36:00.473Z,1017.7
2016-04-01T00:37:00.491Z,1017.7
2016-04-01T00:38:19.711Z,1017.79
2016-04-01T00:39:00.512Z,1017.78
2016-04-01T00:40:00.530Z,1017.78
2016-04-01T00:41:00.564Z,1017.9
2016-04-01T00:42:00.567Z,1017.85
2016-04-01T00:43:19.788Z,1017.78
2016-04-01T00:44:00.588Z,1017.88
2016-04-01T00:45:00.621Z,1017.9
2016-04-01T00:46:00.624Z,1017.88
2016-04-01T00:47:00.643Z,1017.92
2016-04-01T00:48:00.660Z,1017.94
2016-04-01T00:49:13.413Z,1017.96
2016-04-01T00:50:13.432Z,1017.94
2016-04-01T00:51:00.701Z,1017.91
2016-04-01T00:52:00.719Z,1017.94
2016-04-01T00:53:03.643Z,1017.96
2016-04-01T00:54:03.661Z,1017.99
2016-04-01T00:55:03.680Z,1017.95
2016-04-01T00:56:03.699Z,1017.99
2016-04-01T00:57:03.701Z,1018
2016-04-01T00:58:03.720Z,1018.01
2016-04-01T00:59:03.737Z,1017.97
2016-04-01T01:00:03.756Z,1018
2016-04-01T01:01:03.759Z,1018.01
2016-04-01T01:02:03.777Z,1018.01
2016-04-01T01:03:03.795Z,1018.02
2016-04-01T01:04:03.798Z,1018.1
2016-04-01T01:05:03.832Z,1018.03
2016-04-01T01:06:03.834Z,1017.99
2016-04-01T01:07:03.853Z,1018.02
2016-04-01T01:08:03.871Z,1018.06
2016-04-01T01:09:03.889Z,1018.09
2016-04-01T01:10:03.908Z,1018.08
2016-04-01T01:11:03.926Z,1018.1
2016-04-01T01:12:23.132Z,1018.09
2016-04-01T01:13:03.947Z,1018.1
2016-04-01T01:14:03.966Z,1018.12
2016-04-01T01:15:03.983Z,1018.1
2016-04-01T01:16:04.002Z,1018.14
2016-04-01T01:17:04.005Z,1018.11
2016-04-01T01:18:04.023Z,1018.2
2016-04-01T01:19:04.041Z,1018.2
2016-04-01T01:20:04.044Z,1018.23
2016-04-01T01:21:04.077Z,1018.19
2016-04-01T01:22:04.080Z,1018.26
2016-04-01T01:23:10.365Z,1018.26
2016-04-01T01:24:04.101Z,1018.23
2016-04-01T01:25:04.120Z,1018.31
2016-04-01T01:26:04.138Z,1018.26
2016-04-01T01:27:04.156Z,1018.29
2016-04-01T01:28:04.175Z,1018.27
2016-04-01T01:29:04.178Z,1018.28
2016-04-01T01:30:04.196Z,1018.29
2016-04-01T01:31:04.214Z,1018.36
2016-04-01T01:32:23.436Z,1018.29
2016-04-01T01:33:04.251Z,1018.32
2016-04-01T01:34:04.253Z,1018.31
2016-04-01T01:35:04.272Z,1018.32
2016-04-01T01:36:04.289Z,1018.34
2016-04-01T01:37:04.308Z,1018.35
2016-04-01T01:38:04.311Z,1018.37
2016-04-01T01:39:04.330Z,1018.36
2016-04-01T01:40:17.082Z,1018.41
2016-04-01T01:41:17.100Z,1018.42
2016-04-01T01:42:04.384Z,1018.4
2016-04-01T01:43:23.590Z,1018.4
2016-04-01T01:44:04.405Z,1018.44
2016-04-01T01:45:30.099Z,1018.39
2016-04-01T01:46:04.442Z,1018.43
2016-04-01T01:47:04.554Z,1018.49
2016-04-01T01:48:04.479Z,1018.49
2016-04-01T01:49:04.482Z,1018.55
2016-04-01T01:50:04.484Z,1018.58
2016-04-01T01:51:04.518Z,1018.58
2016-04-01T01:52:04.536Z,1018.6
2016-04-01T01:53:23.742Z,1018.59
2016-04-01T01:54:04.541Z,1018.63
2016-04-01T01:55:04.560Z,1018.63
2016-04-01T01:56:04.579Z,1018.67
2016-04-01T01:57:06.018Z,1018.68
2016-04-01T01:58:17.349Z,1018.76
2016-04-01T01:59:04.618Z,1018.7
2016-04-01T02:00:04.636Z,1018.73
2016-04-01T02:01:04.654Z,1018.75
2016-04-01T02:02:04.781Z,1018.73
2016-04-01T02:03:17.425Z,1018.71
2016-04-01T02:04:04.756Z,1018.72
2016-04-01T02:05:04.711Z,1018.69
2016-04-01T02:06:04.730Z,1018.74
2016-04-01T02:07:04.748Z,1018.76
2016-04-01T02:08:04.756Z,1018.78
2016-04-01T02:09:04.774Z,1018.8
2016-04-01T02:10:04.792Z,1018.83
2016-04-01T02:11:04.795Z,1018.87
2016-04-01T02:12:05.423Z,1018.9
2016-04-01T02:13:04.832Z,1018.95
2016-04-01T02:14:04.850Z,1018.92
2016-04-01T02:15:04.852Z,1018.92
2016-04-01T02:16:05.480Z,1018.88
2016-04-01T02:17:17.624Z,1018.91
2016-04-01T02:18:04.893Z,1018.92
2016-04-01T02:19:04.974Z,1018.91
2016-04-01T02:20:05.538Z,1018.94
2016-04-01T02:21:04.946Z,1018.92
2016-04-01T02:22:04.965Z,1018.95
2016-04-01T02:23:04.984Z,1018.94
2016-04-01T02:24:04.987Z,1018.94
2016-04-01T02:25:05.004Z,1018.92
2016-04-01T02:26:05.023Z,1018.98
2016-04-01T02:27:05.026Z,1019
2016-04-01T02:28:05.045Z,1019.04
2016-04-01T02:29:05.063Z,1019.11
2016-04-01T02:30:11.346Z,1019.1
2016-04-01T02:31:05.084Z,1019.13
2016-04-01T02:32:05.101Z,1019.14
2016-04-01T02:33:05.120Z,1019.08
2016-04-01T02:34:05.231Z,1019.1
2016-04-01T02:35:05.156Z,1019.09
2016-04-01T02:36:05.159Z,1019.1
2016-04-01T02:37:05.178Z,1019.13
2016-04-01T02:38:05.197Z,1019.14
2016-04-01T02:39:05.199Z,1019.1
2016-04-01T02:40:05.420Z,1019.13
2016-04-01T02:41:05.219Z,1019.13
2016-04-01T02:42:05.253Z,1019.16
2016-04-01T02:43:05.255Z,1019.15
2016-04-01T02:44:05.274Z,1019.18
2016-04-01T02:45:05.293Z,1019.18
2016-04-01T02:46:05.310Z,1019.18
2016-04-01T02:47:11.579Z,1019.2
2016-04-01T02:48:05.332Z,1019.24
2016-04-01T02:49:05.334Z,1019.2
2016-04-01T02:50:05.353Z,1019.19
2016-04-01T02:51:14.887Z,1019.21
2016-04-01T02:52:40.580Z,1019.21
2016-04-01T02:53:14.924Z,1019.27
2016-04-01T02:54:14.927Z,1019.27
2016-04-01T02:55:15.648Z,1019.25
2016-04-01T02:56:14.963Z,1019.24
2016-04-01T02:57:14.982Z,1019.19
2016-04-01T02:58:14.984Z,1019.24
2016-04-01T02:59:15.003Z,1019.21
2016-04-01T03:00:15.021Z,1019.2
2016-04-01T03:01:15.039Z,1019.23
2016-04-01T03:02:15.042Z,1019.19
2016-04-01T03:03:15.060Z,1019.24
2016-04-01T03:04:15.078Z,1019.17
2016-04-01T03:05:15.081Z,1019.2
2016-04-01T03:06:15.099Z,1019.23
2016-04-01T03:07:15.103Z,1019.18
2016-04-01T03:08:15.120Z,1019.2
2016-04-01T03:09:15.138Z,1019.14
2016-04-01T03:10:15.158Z,1019.13
2016-04-01T03:11:40.834Z,1019.09
2016-04-01T03:12:15.178Z,1019.08
2016-04-01T03:13:15.197Z,1019.07
2016-04-01T03:14:24.730Z,1019.11
2016-04-01T03:15:24.749Z,1019.17
2016-04-01T03:16:24.766Z,1019.13
2016-04-01T03:17:24.769Z,1019.11
2016-04-01T03:18:37.524Z,1019.06
2016-04-01T03:19:24.790Z,1019.05
2016-04-01T03:20:24.809Z,1019.05
2016-04-01T03:21:31.096Z,1019
2016-04-01T03:22:24.846Z,1018.98
2016-04-01T03:23:24.848Z,1019.01
2016-04-01T03:24:37.604Z,1019.01
2016-04-01T03:25:24.869Z,1018.99
2016-04-01T03:26:37.640Z,1019.05
2016-04-01T03:27:24.906Z,1019.03
2016-04-01T03:28:24.909Z,1019.08
2016-04-01T03:29:24.927Z,1019.05
2016-04-01T03:30:24.945Z,1019
2016-04-01T03:31:24.964Z,1018.97
2016-04-01T03:32:25.576Z,1018.96
2016-04-01T03:33:25.110Z,1018.98
2016-04-01T03:34:25.002Z,1018.93
2016-04-01T03:35:37.805Z,1018.94
2016-04-01T03:36:37.761Z,1018.99
2016-04-01T03:37:50.717Z,1019.05
2016-04-01T03:38:25.045Z,1019.06
2016-04-01T03:39:25.063Z,1019.08
2016-04-01T03:40:25.081Z,1019.06
2016-04-01T03:41:37.821Z,1019.07
2016-04-01T03:42:25.102Z,1019.1
2016-04-01T03:43:44.327Z,1019.09
2016-04-01T03:44:25.124Z,1019.14
2016-04-01T03:45:25.142Z,1019.15
2016-04-01T03:46:34.678Z,1019.18
2016-04-01T03:47:34.681Z,1019.12
2016-04-01T03:48:34.699Z,1019.13
2016-04-01T03:49:34.718Z,1019.2
2016-04-01T03:50:34.721Z,1019.17
2016-04-01T03:51:34.738Z,1019.2
2016-04-01T03:52:41.038Z,1019.21
2016-04-01T03:53:34.776Z,1019.17
2016-04-01T03:54:34.779Z,1019.2
2016-04-01T03:55:41.062Z,1019.15
2016-04-01T03:56:41.064Z,1019.19
2016-04-01T03:57:34.817Z,1019.23
2016-04-01T03:58:34.835Z,1019.19
2016-04-01T04:00:37.825Z,1019.16
2016-04-01T04:02:40.925Z,1019.18
2016-04-01T04:03:40.974Z,1019.15
2016-04-01T04:04:50.601Z,1019.14
2016-04-01T04:05:50.620Z,1019.16
2016-04-01T04:07:05.873Z,1019.21
2016-04-01T04:08:05.891Z,1019.19
2016-04-01T04:09:15.503Z,1019.26
2016-04-01T04:10:15.522Z,1019.24
2016-04-01T04:11:15.586Z,1019.23
2016-04-01T04:12:15.745Z,1019.22
2016-04-01T04:13:21.842Z,1019.3
2016-04-01T04:14:18.922Z,1019.3
2016-04-01T04:15:25.097Z,1019.38
2016-04-01T04:16:20.272Z,1019.36
2016-04-01T04:17:31.588Z,1019.4
2016-04-01T04:18:18.886Z,1019.34
2016-04-01T04:19:18.874Z,1019.36
2016-04-01T04:20:18.892Z,1019.39
2016-04-01T04:21:18.910Z,1019.42
2016-04-01T04:22:31.663Z,1019.41
2016-04-01T04:24:44.624Z,1019.43
2016-04-01T04:25:18.952Z,1019.44
2016-04-01T04:26:18.987Z,1019.44
2016-04-01T04:27:25.255Z,1019.47
2016-04-01T04:28:18.993Z,1019.5
2016-04-01T04:29:19.010Z,1019.5
2016-04-01T04:30:19.029Z,1019.45
2016-04-01T04:31:20.454Z,1019.5
2016-04-01T04:32:19.049Z,1019.53
2016-04-01T04:33:38.273Z,1019.58
2016-04-01T04:34:47.854Z,1019.57
2016-04-01T04:35:47.857Z,1019.58
2016-04-01T04:37:00.609Z,1019.59
2016-04-01T04:37:47.878Z,1019.61
2016-04-01T04:38:47.897Z,1019.68
2016-04-01T04:39:47.899Z,1019.74
2016-04-01T04:40:49.339Z,1019.74
2016-04-01T04:42:05.139Z,1019.79
2016-04-01T04:42:52.423Z,1019.83
2016-04-01T04:43:52.442Z,1019.84
2016-04-01T04:44:52.444Z,1019.91
2016-04-01T04:45:52.447Z,1019.95
2016-04-01T04:46:52.464Z,1020
2016-04-01T04:47:52.483Z,1019.98
2016-04-01T04:48:52.502Z,1020
2016-04-01T04:49:52.504Z,1020.01
2016-04-01T04:50:52.507Z,1020.02
2016-04-01T04:52:05.260Z,1020.1
2016-04-01T04:52:52.527Z,1020.05
2016-04-01T04:54:11.765Z,1020.11
2016-04-01T04:54:52.565Z,1020.1
2016-04-01T04:56:18.238Z,1020.13
2016-04-01T04:57:33.430Z,1020.19
2016-04-01T04:58:33.463Z,1020.21
2016-04-01T04:59:33.465Z,1020.25
2016-04-01T05:00:33.469Z,1020.3
2016-04-01T05:01:33.487Z,1020.33
2016-04-01T05:02:33.489Z,1020.35
2016-04-01T05:03:43.057Z,1020.44
2016-04-01T05:05:08.732Z,1020.45
2016-04-01T05:05:52.719Z,1020.47
2016-04-01T05:06:52.737Z,1020.47
2016-04-01T05:07:52.755Z,1020.48
2016-04-01T05:08:52.758Z,1020.48
2016-04-01T05:10:05.511Z,1020.48
2016-04-01T05:11:05.514Z,1020.51
2016-04-01T05:11:52.781Z,1020.49
2016-04-01T05:13:18.473Z,1020.54
2016-04-01T05:14:28.037Z,1020.53
2016-04-01T05:15:02.368Z,1020.55
2016-04-01T05:16:02.387Z,1020.58
2016-04-01T05:17:11.983Z,1020.58
2016-04-01T05:18:11.985Z,1020.61
2016-04-01T05:19:18.269Z,1020.59
2016-04-01T05:20:12.007Z,1020.61
2016-04-01T05:21:31.228Z,1020.62
2016-04-01T05:22:12.044Z,1020.63
2016-04-01T05:23:12.046Z,1020.63
2016-04-01T05:24:12.049Z,1020.64
2016-04-01T05:26:52.916Z,1020.65
2016-04-01T05:27:27.260Z,1020.66
2016-04-01T05:28:27.278Z,1020.62
2016-04-01T05:29:27.281Z,1020.62
2016-04-01T05:30:27.299Z,1020.6
2016-04-01T05:31:27.912Z,1020.65
2016-04-01T05:32:27.320Z,1020.65
2016-04-01T05:33:27.338Z,1020.66
2016-04-01T05:34:27.341Z,1020.66
2016-04-01T05:35:27.359Z,1020.69
2016-04-01T05:36:27.378Z,1020.71
2016-04-01T05:37:27.381Z,1020.76
2016-04-01T05:38:27.399Z,1020.75
2016-04-01T05:39:27.402Z,1020.76
2016-04-01T05:40:27.420Z,1020.78
2016-04-01T05:41:27.469Z,1020.79
2016-04-01T05:42:27.442Z,1020.79
2016-04-01T05:43:27.506Z,1020.84
2016-04-01T05:44:40.199Z,1020.91
2016-04-01T05:45:27.480Z,1020.96
2016-04-01T05:46:27.483Z,1020.96
2016-04-01T05:47:27.501Z,1020.98
2016-04-01T05:48:27.520Z,1021.03
2016-04-01T05:49:40.258Z,1021.09
2016-04-01T05:50:53.215Z,1021.13
2016-04-01T05:51:37.105Z,1021.09
2016-04-01T05:52:37.124Z,1021.11
2016-04-01T05:53:37.127Z,1021.14
2016-04-01T05:54:37.130Z,1021.13
2016-04-01T05:55:37.147Z,1021.15
2016-04-01T05:56:37.150Z,1021.21
2016-04-01T05:57:37.169Z,1021.22
2016-04-01T05:58:37.187Z,1021.27
2016-04-01T05:59:37.190Z,1021.29
2016-04-01T06:00:37.208Z,1021.31
2016-04-01T06:01:37.210Z,1021.38
2016-04-01T06:02:37.246Z,1021.39
2016-04-01T06:03:37.262Z,1021.43
2016-04-01T06:04:37.265Z,1021.45
2016-04-01T06:05:37.284Z,1021.45
2016-04-01T06:06:37.286Z,1021.46
2016-04-01T06:07:37.305Z,1021.48
2016-04-01T06:08:37.311Z,1021.5
2016-04-01T06:09:37.346Z,1021.53
2016-04-01T06:10:37.364Z,1021.59
2016-04-01T06:11:37.367Z,1021.61
2016-04-01T06:12:37.400Z,1021.62
2016-04-01T06:13:37.419Z,1021.55
2016-04-01T06:14:37.422Z,1021.6
2016-04-01T06:15:37.441Z,1021.6
2016-04-01T06:16:37.458Z,1021.63
2016-04-01T06:17:37.477Z,1021.62
2016-04-01T06:18:37.495Z,1021.61
2016-04-01T06:19:37.529Z,1021.59
2016-04-01T06:20:37.532Z,1021.65
2016-04-01T06:21:37.565Z,1021.7
2016-04-01T06:22:37.567Z,1021.68
2016-04-01T06:23:37.601Z,1021.72
2016-04-01T06:24:37.621Z,1021.72
2016-04-01T06:25:37.685Z,1021.7
2016-04-01T06:26:37.656Z,1021.7
2016-04-01T06:27:37.675Z,1021.71
2016-04-01T06:28:37.693Z,1021.71
2016-04-01T06:29:50.464Z,1021.74
2016-04-01T06:30:37.745Z,1021.73
2016-04-01T06:31:37.764Z,1021.77
2016-04-01T06:32:37.783Z,1021.8
2016-04-01T06:33:37.832Z,1021.84
2016-04-01T06:34:37.835Z,1021.83
2016-04-01T06:35:37.853Z,1021.82
2016-04-01T06:36:40.937Z,1021.87
2016-04-01T06:37:40.970Z,1021.88
2016-04-01T06:38:51.161Z,1021.92
2016-04-01T06:39:51.195Z,1021.88
2016-04-01T06:40:51.228Z,1021.94
2016-04-01T06:41:51.231Z,1021.9
2016-04-01T06:42:51.249Z,1021.91
2016-04-01T06:43:51.283Z,1021.95
2016-04-01T06:44:51.302Z,1021.94
2016-04-01T06:45:51.335Z,1021.94
2016-04-01T06:46:51.354Z,1021.96
2016-04-01T06:47:51.388Z,1021.96
2016-04-01T06:48:51.407Z,1021.97
2016-04-01T06:49:51.425Z,1022.01
2016-04-01T06:50:51.443Z,1022.03
2016-04-01T06:51:51.571Z,1022.01
2016-04-01T06:52:51.496Z,1022.03
2016-04-01T06:53:51.513Z,1022.04
2016-04-01T06:54:51.548Z,1022.07
2016-04-01T06:55:51.566Z,1022.06
2016-04-01T06:56:51.600Z,1022.1
2016-04-01T06:57:51.618Z,1022.12
2016-04-01T06:58:51.636Z,1022.14
2016-04-01T06:59:51.686Z,1022.16
2016-04-01T07:00:51.704Z,1022.15
2016-04-01T07:01:51.723Z,1022.21
2016-04-01T07:02:51.741Z,1022.18
2016-04-01T07:03:51.775Z,1022.23
2016-04-01T07:05:04.543Z,1022.22
2016-04-01T07:05:51.843Z,1022.21
2016-04-01T07:07:11.064Z,1022.25
2016-04-01T07:07:51.879Z,1022.29
2016-04-01T07:08:51.913Z,1022.32
2016-04-01T07:09:51.931Z,1022.35
2016-04-01T07:10:51.966Z,1022.38
2016-04-01T07:11:51.984Z,1022.41
2016-04-01T07:12:52.018Z,1022.41
2016-04-01T07:13:52.239Z,1022.47
2016-04-01T07:14:52.069Z,1022.47
2016-04-01T07:15:52.088Z,1022.48
2016-04-01T07:16:52.122Z,1022.53
2016-04-01T07:17:52.141Z,1022.52
2016-04-01T07:18:52.160Z,1022.46
2016-04-01T07:19:52.194Z,1022.51
2016-04-01T07:20:52.227Z,1022.53
2016-04-01T07:21:52.245Z,1022.49
2016-04-01T07:22:52.279Z,1022.5
2016-04-01T07:23:52.299Z,1022.51
2016-04-01T07:24:52.331Z,1022.58
2016-04-01T07:26:05.084Z,1022.58
2016-04-01T07:26:52.368Z,1022.54
2016-04-01T07:27:52.402Z,1022.58
2016-04-01T07:28:52.420Z,1022.57
2016-04-01T07:29:52.440Z,1022.49
2016-04-01T07:30:52.473Z,1022.51
2016-04-01T07:31:52.490Z,1022.51
2016-04-01T07:32:52.526Z,1022.6
2016-04-01T07:34:05.340Z,1022.5
2016-04-01T07:34:52.575Z,1022.5
2016-04-01T07:35:52.593Z,1022.52
2016-04-01T07:36:52.612Z,1022.6
2016-04-01T07:37:52.646Z,1022.52
2016-04-01T07:38:52.664Z,1022.62
2016-04-01T07:39:52.682Z,1022.55
2016-04-01T07:40:52.701Z,1022.53
2016-04-01T07:41:52.750Z,1022.59
2016-04-01T07:42:52.768Z,1022.49
2016-04-01T07:43:53.428Z,1022.56
2016-04-01T07:44:52.792Z,1022.59
2016-04-01T07:45:52.793Z,1022.54
2016-04-01T07:46:52.813Z,1022.47
2016-04-01T07:47:52.815Z,1022.42
2016-04-01T07:48:52.927Z,1022.42
2016-04-01T07:49:52.830Z,1022.39
2016-04-01T07:50:52.874Z,1022.37
2016-04-01T07:52:05.604Z,1022.39
2016-04-01T07:52:52.885Z,1022.42
2016-04-01T07:53:52.899Z,1022.43
2016-04-01T07:54:59.180Z,1022.5
2016-04-01T07:55:52.945Z,1022.41
2016-04-01T07:56:52.962Z,1022.34
2016-04-01T07:57:52.979Z,1022.34
2016-04-01T07:58:52.995Z,1022.35
2016-04-01T07:59:53.122Z,1022.37
2016-04-01T08:00:53.062Z,1022.35
2016-04-01T08:01:53.064Z,1022.39
2016-04-01T08:02:53.081Z,1022.39
2016-04-01T08:03:53.083Z,1022.42
2016-04-01T08:04:53.117Z,1022.43
2016-04-01T08:05:53.134Z,1022.44
2016-04-01T08:06:53.136Z,1022.52
2016-04-01T08:07:53.155Z,1022.52
2016-04-01T08:08:53.188Z,1022.52
2016-04-01T08:09:53.207Z,1022.53
2016-04-01T08:10:53.224Z,1022.49
2016-04-01T08:11:53.243Z,1022.5
2016-04-01T08:12:53.355Z,1022.51
2016-04-01T08:13:53.280Z,1022.54
2016-04-01T08:14:53.282Z,1022.47
2016-04-01T08:16:06.070Z,1022.51
2016-04-01T08:16:53.335Z,1022.55
2016-04-01T08:17:53.353Z,1022.57
2016-04-01T08:18:53.356Z,1022.58
2016-04-01T08:19:53.374Z,1022.56
2016-04-01T08:20:53.392Z,1022.57
2016-04-01T08:21:53.411Z,1022.6
2016-04-01T08:22:53.428Z,1022.56
2016-04-01T08:23:53.447Z,1022.55
2016-04-01T08:24:53.466Z,1022.55
2016-04-01T08:25:53.531Z,1022.58
2016-04-01T08:26:53.502Z,1022.59
2016-04-01T08:27:53.519Z,1022.62
2016-04-01T08:28:53.522Z,1022.61
2016-04-01T08:29:53.542Z,1022.62
2016-04-01T08:30:53.560Z,1022.68
2016-04-01T08:31:53.578Z,1022.7
2016-04-01T08:32:53.597Z,1022.68
2016-04-01T08:33:53.615Z,1022.71
2016-04-01T08:34:54.243Z,1022.69
2016-04-01T08:35:53.652Z,1022.73
2016-04-01T08:36:53.669Z,1022.69
2016-04-01T08:37:53.688Z,1022.7
2016-04-01T08:38:53.707Z,1022.71
2016-04-01T08:39:53.709Z,1022.73
2016-04-01T08:41:06.480Z,1022.69
2016-04-01T08:41:53.762Z,1022.73
2016-04-01T08:42:53.779Z,1022.73
2016-04-01T08:43:56.876Z,1022.68
2016-04-01T08:44:56.879Z,1022.74
2016-04-01T08:45:56.898Z,1022.72
2016-04-01T08:46:57.525Z,1022.77
2016-04-01T08:47:56.934Z,1022.77
2016-04-01T08:48:56.952Z,1022.82
2016-04-01T08:49:56.970Z,1022.84
2016-04-01T08:50:56.989Z,1022.81
2016-04-01T08:52:09.745Z,1022.76
2016-04-01T08:52:57.026Z,1022.76
2016-04-01T08:54:22.703Z,1022.8
2016-04-01T08:54:57.062Z,1022.79
2016-04-01T08:55:57.065Z,1022.76
2016-04-01T08:56:57.083Z,1022.75
2016-04-01T08:57:57.101Z,1022.78
2016-04-01T08:59:09.856Z,1022.77
2016-04-01T09:00:09.875Z,1022.74
2016-04-01T09:00:57.156Z,1022.82
2016-04-01T09:01:57.174Z,1022.77
2016-04-01T09:02:57.239Z,1022.8
2016-04-01T09:03:57.211Z,1022.83
2016-04-01T09:04:57.229Z,1022.82
2016-04-01T09:05:57.232Z,1022.88
2016-04-01T09:06:57.250Z,1022.9
2016-04-01T09:07:57.285Z,1022.87
2016-04-01T09:08:57.302Z,1022.9
2016-04-01T09:09:57.305Z,1022.9
2016-04-01T09:10:57.324Z,1022.93
2016-04-01T09:11:57.342Z,1022.89
2016-04-01T09:12:57.360Z,1022.97
2016-04-01T09:13:57.379Z,1022.97
2016-04-01T09:14:57.396Z,1022.97
2016-04-01T09:15:57.415Z,1022.93
2016-04-01T09:16:57.418Z,1023.03
2016-04-01T09:17:57.452Z,1022.98
2016-04-01T09:18:57.454Z,1022.97
2016-04-01T09:19:57.473Z,1022.94
2016-04-01T09:20:57.492Z,1022.96
2016-04-01T09:21:57.509Z,1022.97
2016-04-01T09:22:57.528Z,1022.98
2016-04-01T09:23:57.545Z,1022.98
2016-04-01T09:24:57.564Z,1023.01
2016-04-01T09:25:57.567Z,1023.12
2016-04-01T09:26:57.585Z,1023
2016-04-01T09:27:57.603Z,1023.06
2016-04-01T09:28:57.638Z,1023.01
2016-04-01T09:29:57.655Z,1023.05
2016-04-01T09:30:57.674Z,1023.04
2016-04-01T09:31:57.677Z,1023.06
2016-04-01T09:32:57.805Z,1023.07
2016-04-01T09:33:57.730Z,1023.09
2016-04-01T09:34:57.733Z,1023.12
2016-04-01T09:35:57.844Z,1023.12
2016-04-01T09:36:57.785Z,1023.14
2016-04-01T09:37:57.788Z,1023.17
2016-04-01T09:38:57.805Z,1023.18
2016-04-01T09:39:57.824Z,1023.2
2016-04-01T09:40:57.888Z,1023.18
2016-04-01T09:41:57.954Z,1023.2
2016-04-01T09:42:57.863Z,1023.2
2016-04-01T09:43:57.882Z,1023.17
2016-04-01T09:44:57.915Z,1023.2
2016-04-01T09:45:57.996Z,1023.27
2016-04-01T09:46:57.952Z,1023.28
2016-04-01T09:47:57.971Z,1023.27
2016-04-01T09:48:57.974Z,1023.31
2016-04-01T09:49:58.023Z,1023.34
2016-04-01T09:50:58.010Z,1023.31
2016-04-01T09:51:58.028Z,1023.38
2016-04-01T09:52:58.046Z,1023.36
2016-04-01T09:53:58.064Z,1023.35
2016-04-01T09:54:58.067Z,1023.36
2016-04-01T09:55:58.086Z,1023.33
2016-04-01T09:56:58.104Z,1023.32
2016-04-01T09:57:58.122Z,1023.34
2016-04-01T09:58:58.140Z,1023.34
2016-04-01T09:59:58.159Z,1023.3
2016-04-01T10:00:58.192Z,1023.35
2016-04-01T10:02:10.930Z,1023.35
2016-04-01T10:02:58.213Z,1023.38
2016-04-01T10:03:58.232Z,1023.38
2016-04-01T10:04:58.250Z,1023.39
2016-04-01T10:05:58.471Z,1023.38
2016-04-01T10:06:58.286Z,1023.4
2016-04-01T10:07:58.305Z,1023.4
2016-04-01T10:08:58.324Z,1023.41
2016-04-01T10:09:58.342Z,1023.44
2016-04-01T10:10:58.361Z,1023.42
2016-04-01T10:11:58.379Z,1023.41
2016-04-01T10:12:58.397Z,1023.41
2016-04-01T10:13:58.430Z,1023.39
2016-04-01T10:14:58.433Z,1023.43
2016-04-01T10:15:58.451Z,1023.39
2016-04-01T10:16:58.485Z,1023.41
2016-04-01T10:17:58.488Z,1023.41
2016-04-01T10:18:58.507Z,1023.47
2016-04-01T10:19:58.510Z,1023.49
2016-04-01T10:20:58.543Z,1023.46
2016-04-01T10:21:58.562Z,1023.45
2016-04-01T10:22:58.579Z,1023.44
2016-04-01T10:23:58.582Z,1023.44
2016-04-01T10:24:58.601Z,1023.44
2016-04-01T10:25:58.619Z,1023.43
2016-04-01T10:27:11.387Z,1023.44
2016-04-01T10:27:58.671Z,1023.41
2016-04-01T10:28:58.675Z,1023.43
2016-04-01T10:29:58.708Z,1023.42
2016-04-01T10:30:58.726Z,1023.45
2016-04-01T10:31:58.728Z,1023.42
2016-04-01T10:32:58.763Z,1023.48
2016-04-01T10:33:58.766Z,1023.44
2016-04-01T10:35:00.206Z,1023.44
2016-04-01T10:35:58.865Z,1023.44
2016-04-01T10:36:58.822Z,1023.4
2016-04-01T10:37:58.839Z,1023.39
2016-04-01T10:38:58.873Z,1023.39
2016-04-01T10:39:58.891Z,1023.39
2016-04-01T10:40:58.894Z,1023.39
2016-04-01T10:41:58.912Z,1023.37
2016-04-01T10:42:58.930Z,1023.38
2016-04-01T10:43:58.949Z,1023.37
2016-04-01T10:44:58.968Z,1023.42
2016-04-01T10:45:58.986Z,1023.37
2016-04-01T10:46:59.019Z,1023.4
2016-04-01T10:47:59.022Z,1023.42
2016-04-01T10:49:11.774Z,1023.39
2016-04-01T10:49:59.059Z,1023.46
2016-04-01T10:50:59.076Z,1023.49
2016-04-01T10:51:59.095Z,1023.47
2016-04-01T10:52:59.114Z,1023.51
2016-04-01T10:54:11.867Z,1023.5
2016-04-01T10:54:59.151Z,1023.55
2016-04-01T10:55:59.168Z,1023.54
2016-04-01T10:57:11.921Z,1023.51
2016-04-01T10:57:59.205Z,1023.52
2016-04-01T10:59:18.429Z,1023.55
2016-04-01T11:00:11.976Z,1023.53
2016-04-01T11:00:59.261Z,1023.51
2016-04-01T11:01:59.278Z,1023.52
2016-04-01T11:02:59.297Z,1023.51
2016-04-01T11:03:59.315Z,1023.5
2016-04-01T11:04:59.333Z,1023.51
2016-04-01T11:05:59.352Z,1023.51
2016-04-01T11:06:59.369Z,1023.42
2016-04-01T11:07:59.381Z,1023.45
2016-04-01T11:08:59.400Z,1023.44
2016-04-01T11:09:59.434Z,1023.44
2016-04-01T11:10:59.437Z,1023.44
2016-04-01T11:11:59.455Z,1023.42
2016-04-01T11:12:59.473Z,1023.46
2016-04-01T11:14:12.225Z,1023.44
2016-04-01T11:14:59.525Z,1023.44
2016-04-01T11:16:18.750Z,1023.44
2016-04-01T11:17:02.969Z,1023.43
2016-04-01T11:18:12.331Z,1023.46
2016-04-01T11:19:38.039Z,1023.47
2016-04-01T11:20:12.994Z,1023.45
2016-04-01T11:21:12.401Z,1023.43
2016-04-01T11:22:12.404Z,1023.46
2016-04-01T11:23:12.421Z,1023.48
2016-04-01T11:24:12.440Z,1023.47
2016-04-01T11:25:12.458Z,1023.47
2016-04-01T11:26:12.477Z,1023.45
2016-04-01T11:27:12.496Z,1023.41
2016-04-01T11:28:12.513Z,1023.46
2016-04-01T11:29:12.532Z,1023.46
2016-04-01T11:30:12.753Z,1023.46
2016-04-01T11:31:12.584Z,1023.44
2016-04-01T11:32:12.586Z,1023.45
2016-04-01T11:33:12.604Z,1023.45
2016-04-01T11:34:25.376Z,1023.48
2016-04-01T11:35:12.642Z,1023.45
2016-04-01T11:36:12.676Z,1023.43
2016-04-01T11:37:25.431Z,1023.48
2016-04-01T11:38:25.449Z,1023.47
2016-04-01T11:39:12.730Z,1023.43
2016-04-01T11:40:12.733Z,1023.4
2016-04-01T11:41:12.767Z,1023.36
2016-04-01T11:42:12.786Z,1023.36
2016-04-01T11:43:12.789Z,1023.31
2016-04-01T11:44:12.822Z,1023.33
2016-04-01T11:45:12.841Z,1023.38
2016-04-01T11:46:12.844Z,1023.36
2016-04-01T11:47:12.877Z,1023.31
2016-04-01T11:48:15.929Z,1023.35
2016-04-01T11:49:12.913Z,1023.3
2016-04-01T11:50:32.138Z,1023.33
2016-04-01T11:51:12.969Z,1023.35
2016-04-01T11:52:12.988Z,1023.32
2016-04-01T11:53:13.005Z,1023.36
2016-04-01T11:54:13.008Z,1023.37
2016-04-01T11:55:13.026Z,1023.35
2016-04-01T11:56:13.044Z,1023.33
2016-04-01T11:57:13.078Z,1023.33
2016-04-01T11:58:13.081Z,1023.32
2016-04-01T11:59:25.849Z,1023.29
2016-04-01T12:00:13.118Z,1023.3
2016-04-01T12:01:13.137Z,1023.28
2016-04-01T12:02:13.154Z,1023.29
2016-04-01T12:03:13.188Z,1023.24
2016-04-01T12:04:13.206Z,1023.27
2016-04-01T12:05:13.225Z,1023.27
2016-04-01T12:06:13.228Z,1023.3
2016-04-01T12:07:13.856Z,1023.3
2016-04-01T12:08:13.281Z,1023.31
2016-04-01T12:09:13.298Z,1023.29
2016-04-01T12:10:13.317Z,1023.33
2016-04-01T12:11:13.334Z,1023.34
2016-04-01T12:12:13.353Z,1023.38
2016-04-01T12:13:13.371Z,1023.34
2016-04-01T12:14:13.389Z,1023.38
2016-04-01T12:15:13.408Z,1023.37
2016-04-01T12:16:13.442Z,1023.37
2016-04-01T12:17:13.461Z,1023.31